EGCN/DSA METAR and TAF weather

Enter ICAO airport designator
Station Type Date Time Source
EGCN METAR 2020/04/08 22:20 UTC NOAA

EGCN 082220Z 36004KT CAVOK 11/07 Q1026


Station Type Date Time Source
EGCN Decoded METAR 2020/04/08 22:20 UTC NOAA

Station name not available
Apr 08, 2020 - 06:20 PM EDT / 2020.04.08 2220 UTC
Wind: from the N (360 degrees) at 5 MPH (4 KT):0
Visibility: greater than 7 mile(s):0
Temperature: 51 F (11 C)
Dew Point: 44 F (7 C)
Relative Humidity: 76%
Pressure (altimeter): 30.30 in. Hg (1026 hPa)
ob: EGCN 082220Z 36004KT CAVOK 11/07 Q1026
cycle: 22

Station Type Date Time Source
EGCN TAF 2020/04/08 18:00 UTC NOAA

TAF EGCN 081701Z 0818/0918 27004KT 9999 FEW040 PROB30 0818/0820 07010KT PROB30 0902/0908 8000
BECMG 0908/0911 07010KT PROB30
TEMPO 0908/0918 BKN014

Example: see airport list